sensor_id;sensor_type;location;lat;lon;timestamp;temperature;humidity
64549;DHT22;49838;51.798;10.954;2022-08-19T00:01:25;27.70;38.30
64549;DHT22;49838;51.798;10.954;2022-08-19T00:03:54;27.70;38.40
64549;DHT22;49838;51.798;10.954;2022-08-19T00:06:21;27.70;38.30
64549;DHT22;49838;51.798;10.954;2022-08-19T00:08:49;27.70;38.30
64549;DHT22;49838;51.798;10.954;2022-08-19T00:11:17;27.70;38.00
64549;DHT22;49838;51.798;10.954;2022-08-19T00:13:45;27.80;38.10
64549;DHT22;49838;51.798;10.954;2022-08-19T00:16:15;27.80;37.90
64549;DHT22;49838;51.798;10.954;2022-08-19T00:18:44;27.80;38.00
64549;DHT22;49838;51.798;10.954;2022-08-19T00:21:12;27.80;38.00
64549;DHT22;49838;51.798;10.954;2022-08-19T00:23:40;27.80;38.20
64549;DHT22;49838;51.798;10.954;2022-08-19T00:26:09;27.80;38.20
64549;DHT22;49838;51.798;10.954;2022-08-19T00:28:37;27.70;38.40
64549;DHT22;49838;51.798;10.954;2022-08-19T00:31:05;27.70;39.10
64549;DHT22;49838;51.798;10.954;2022-08-19T00:33:33;27.60;39.10
64549;DHT22;49838;51.798;10.954;2022-08-19T00:36:03;27.60;39.00
64549;DHT22;49838;51.798;10.954;2022-08-19T00:38:33;27.60;39.00
64549;DHT22;49838;51.798;10.954;2022-08-19T00:41:02;27.60;39.50
64549;DHT22;49838;51.798;10.954;2022-08-19T00:43:30;27.50;39.40
64549;DHT22;49838;51.798;10.954;2022-08-19T00:45:58;27.50;39.70
64549;DHT22;49838;51.798;10.954;2022-08-19T00:48:27;27.40;39.70
64549;DHT22;49838;51.798;10.954;2022-08-19T00:50:54;27.40;39.50
64549;DHT22;49838;51.798;10.954;2022-08-19T00:53:23;27.40;39.50
64549;DHT22;49838;51.798;10.954;2022-08-19T00:55:55;27.40;39.40
64549;DHT22;49838;51.798;10.954;2022-08-19T00:58:26;27.30;39.60
64549;DHT22;49838;51.798;10.954;2022-08-19T01:00:56;27.30;39.90
64549;DHT22;49838;51.798;10.954;2022-08-19T01:03:24;27.20;40.10
64549;DHT22;49838;51.798;10.954;2022-08-19T01:05:51;27.20;39.90
64549;DHT22;49838;51.798;10.954;2022-08-19T01:08:21;27.20;39.90
64549;DHT22;49838;51.798;10.954;2022-08-19T01:10:50;27.20;40.10
64549;DHT22;49838;51.798;10.954;2022-08-19T01:13:22;27.20;40.50
64549;DHT22;49838;51.798;10.954;2022-08-19T01:15:52;27.10;41.00
64549;DHT22;49838;51.798;10.954;2022-08-19T01:18:22;27.10;40.90
64549;DHT22;49838;51.798;10.954;2022-08-19T01:20:51;27.10;40.90
64549;DHT22;49838;51.798;10.954;2022-08-19T01:23:23;27.10;41.20
64549;DHT22;49838;51.798;10.954;2022-08-19T01:26:08;27.10;40.90
64549;DHT22;49838;51.798;10.954;2022-08-19T01:28:37;27.10;40.70
64549;DHT22;49838;51.798;10.954;2022-08-19T01:31:06;27.10;40.70
64549;DHT22;49838;51.798;10.954;2022-08-19T01:33:34;27.10;40.80
64549;DHT22;49838;51.798;10.954;2022-08-19T01:36:05;27.10;40.50
64549;DHT22;49838;51.798;10.954;2022-08-19T01:38:37;27.10;40.80
64549;DHT22;49838;51.798;10.954;2022-08-19T01:41:06;27.10;41.00
64549;DHT22;49838;51.798;10.954;2022-08-19T01:43:33;27.10;40.90
64549;DHT22;49838;51.798;10.954;2022-08-19T01:46:01;27.10;41.10
64549;DHT22;49838;51.798;10.954;2022-08-19T01:48:32;27.10;41.10
64549;DHT22;49838;51.798;10.954;2022-08-19T01:51:00;27.10;41.10
64549;DHT22;49838;51.798;10.954;2022-08-19T01:53:28;27.10;41.10
64549;DHT22;49838;51.798;10.954;2022-08-19T01:55:57;27.00;41.20
64549;DHT22;49838;51.798;10.954;2022-08-19T01:58:27;27.00;41.40
64549;DHT22;49838;51.798;10.954;2022-08-19T02:00:59;27.00;41.30
64549;DHT22;49838;51.798;10.954;2022-08-19T02:03:26;27.00;41.40
64549;DHT22;49838;51.798;10.954;2022-08-19T02:05:55;27.00;41.70
64549;DHT22;49838;51.798;10.954;2022-08-19T02:08:25;27.00;41.70
64549;DHT22;49838;51.798;10.954;2022-08-19T02:10:53;27.00;41.60
64549;DHT22;49838;51.798;10.954;2022-08-19T02:13:24;27.00;41.70
64549;DHT22;49838;51.798;10.954;2022-08-19T02:15:54;27.00;42.10
64549;DHT22;49838;51.798;10.954;2022-08-19T02:18:21;26.90;41.90
64549;DHT22;49838;51.798;10.954;2022-08-19T02:20:49;26.90;41.80
64549;DHT22;49838;51.798;10.954;2022-08-19T02:23:16;26.90;41.80
64549;DHT22;49838;51.798;10.954;2022-08-19T02:25:44;26.90;41.90
64549;DHT22;49838;51.798;10.954;2022-08-19T02:28:14;26.90;42.20
64549;DHT22;49838;51.798;10.954;2022-08-19T02:30:43;26.90;41.90
64549;DHT22;49838;51.798;10.954;2022-08-19T02:33:10;26.90;41.80
64549;DHT22;49838;51.798;10.954;2022-08-19T02:35:40;26.90;41.70
64549;DHT22;49838;51.798;10.954;2022-08-19T02:38:08;26.90;41.90
64549;DHT22;49838;51.798;10.954;2022-08-19T02:40:54;26.90;42.00
64549;DHT22;49838;51.798;10.954;2022-08-19T02:43:23;26.90;42.00
64549;DHT22;49838;51.798;10.954;2022-08-19T02:45:53;26.80;42.00
64549;DHT22;49838;51.798;10.954;2022-08-19T02:48:21;26.80;42.10
64549;DHT22;49838;51.798;10.954;2022-08-19T02:50:50;26.80;42.00
64549;DHT22;49838;51.798;10.954;2022-08-19T02:53:21;26.80;41.90
64549;DHT22;49838;51.798;10.954;2022-08-19T02:55:50;26.80;41.70
64549;DHT22;49838;51.798;10.954;2022-08-19T02:58:18;26.80;41.70
64549;DHT22;49838;51.798;10.954;2022-08-19T03:00:47;26.80;41.70
64549;DHT22;49838;51.798;10.954;2022-08-19T03:03:18;26.80;41.60
64549;DHT22;49838;51.798;10.954;2022-08-19T03:05:45;26.80;41.50
64549;DHT22;49838;51.798;10.954;2022-08-19T03:08:13;26.70;41.80
64549;DHT22;49838;51.798;10.954;2022-08-19T03:10:42;26.70;41.70
64549;DHT22;49838;51.798;10.954;2022-08-19T03:13:12;26.70;41.70
64549;DHT22;49838;51.798;10.954;2022-08-19T03:15:41;26.60;41.50
64549;DHT22;49838;51.798;10.954;2022-08-19T03:18:10;26.70;41.40
64549;DHT22;49838;51.798;10.954;2022-08-19T03:20:43;26.70;41.40
64549;DHT22;49838;51.798;10.954;2022-08-19T03:23:12;26.70;41.30
64549;DHT22;49838;51.798;10.954;2022-08-19T03:25:41;26.60;41.70
64549;DHT22;49838;51.798;10.954;2022-08-19T03:28:10;26.60;42.30
64549;DHT22;49838;51.798;10.954;2022-08-19T03:30:38;26.50;42.00
64549;DHT22;49838;51.798;10.954;2022-08-19T03:33:06;26.50;42.00
64549;DHT22;49838;51.798;10.954;2022-08-19T03:35:34;26.50;42.10
64549;DHT22;49838;51.798;10.954;2022-08-19T03:38:04;26.50;42.00
64549;DHT22;49838;51.798;10.954;2022-08-19T03:40:36;26.50;41.80
64549;DHT22;49838;51.798;10.954;2022-08-19T03:43:03;26.50;41.70
64549;DHT22;49838;51.798;10.954;2022-08-19T03:45:31;26.40;41.80
64549;DHT22;49838;51.798;10.954;2022-08-19T03:47:59;26.40;41.90
64549;DHT22;49838;51.798;10.954;2022-08-19T03:50:26;26.40;42.20
64549;DHT22;49838;51.798;10.954;2022-08-19T03:52:53;26.40;41.90
64549;DHT22;49838;51.798;10.954;2022-08-19T03:55:22;26.30;41.80
64549;DHT22;49838;51.798;10.954;2022-08-19T03:57:49;26.30;41.80
64549;DHT22;49838;51.798;10.954;2022-08-19T04:00:17;26.30;41.90
64549;DHT22;49838;51.798;10.954;2022-08-19T04:02:44;26.30;42.20
64549;DHT22;49838;51.798;10.954;2022-08-19T04:05:11;26.30;42.40
64549;DHT22;49838;51.798;10.954;2022-08-19T04:07:40;26.20;42.70
64549;DHT22;49838;51.798;10.954;2022-08-19T04:10:08;26.20;42.80
64549;DHT22;49838;51.798;10.954;2022-08-19T04:12:37;26.10;42.60
64549;DHT22;49838;51.798;10.954;2022-08-19T04:15:05;26.10;42.90
64549;DHT22;49838;51.798;10.954;2022-08-19T04:17:34;26.10;43.00
64549;DHT22;49838;51.798;10.954;2022-08-19T04:20:01;26.10;42.90
64549;DHT22;49838;51.798;10.954;2022-08-19T04:22:29;26.00;42.90
64549;DHT22;49838;51.798;10.954;2022-08-19T04:24:56;26.00;42.80
64549;DHT22;49838;51.798;10.954;2022-08-19T04:27:23;26.10;42.60
64549;DHT22;49838;51.798;10.954;2022-08-19T04:29:52;26.00;42.50
64549;DHT22;49838;51.798;10.954;2022-08-19T04:32:20;26.00;42.40
64549;DHT22;49838;51.798;10.954;2022-08-19T04:34:48;26.00;42.40
64549;DHT22;49838;51.798;10.954;2022-08-19T04:37:15;26.00;42.50
64549;DHT22;49838;51.798;10.954;2022-08-19T04:39:43;26.00;42.60
64549;DHT22;49838;51.798;10.954;2022-08-19T04:42:27;26.00;42.70
64549;DHT22;49838;51.798;10.954;2022-08-19T04:45:10;25.90;42.80
64549;DHT22;49838;51.798;10.954;2022-08-19T04:47:40;25.90;42.70
64549;DHT22;49838;51.798;10.954;2022-08-19T04:50:09;25.90;42.60
64549;DHT22;49838;51.798;10.954;2022-08-19T04:52:37;25.90;42.50
64549;DHT22;49838;51.798;10.954;2022-08-19T04:55:08;25.90;42.70
64549;DHT22;49838;51.798;10.954;2022-08-19T04:57:36;25.90;42.80
64549;DHT22;49838;51.798;10.954;2022-08-19T05:00:06;25.90;42.80
64549;DHT22;49838;51.798;10.954;2022-08-19T05:02:36;25.90;42.80
64549;DHT22;49838;51.798;10.954;2022-08-19T05:05:04;25.90;42.80
64549;DHT22;49838;51.798;10.954;2022-08-19T05:07:32;26.00;42.60
64549;DHT22;49838;51.798;10.954;2022-08-19T05:09:59;25.90;42.80
64549;DHT22;49838;51.798;10.954;2022-08-19T05:12:27;25.90;43.00
64549;DHT22;49838;51.798;10.954;2022-08-19T05:14:54;25.90;43.30
64549;DHT22;49838;51.798;10.954;2022-08-19T05:17:23;25.90;43.20
64549;DHT22;49838;51.798;10.954;2022-08-19T05:19:56;25.90;42.90
64549;DHT22;49838;51.798;10.954;2022-08-19T05:22:41;26.00;42.70
64549;DHT22;49838;51.798;10.954;2022-08-19T05:25:10;26.00;42.60
64549;DHT22;49838;51.798;10.954;2022-08-19T05:27:39;26.00;42.60
64549;DHT22;49838;51.798;10.954;2022-08-19T05:30:08;26.00;42.80
64549;DHT22;49838;51.798;10.954;2022-08-19T05:32:39;26.00;43.10
64549;DHT22;49838;51.798;10.954;2022-08-19T05:35:07;26.00;42.80
64549;DHT22;49838;51.798;10.954;2022-08-19T05:37:35;26.00;42.80
64549;DHT22;49838;51.798;10.954;2022-08-19T05:40:02;26.00;42.60
64549;DHT22;49838;51.798;10.954;2022-08-19T05:42:30;26.00;42.60
64549;DHT22;49838;51.798;10.954;2022-08-19T05:44:57;26.00;42.70
64549;DHT22;49838;51.798;10.954;2022-08-19T05:47:25;26.00;42.70
64549;DHT22;49838;51.798;10.954;2022-08-19T05:49:54;26.00;42.80
64549;DHT22;49838;51.798;10.954;2022-08-19T05:52:21;26.00;42.80
64549;DHT22;49838;51.798;10.954;2022-08-19T05:54:48;26.00;42.60
64549;DHT22;49838;51.798;10.954;2022-08-19T05:57:16;26.10;42.50
64549;DHT22;49838;51.798;10.954;2022-08-19T05:59:44;26.00;42.50
64549;DHT22;49838;51.798;10.954;2022-08-19T06:02:17;26.00;42.50
64549;DHT22;49838;51.798;10.954;2022-08-19T06:04:44;26.00;42.50
64549;DHT22;49838;51.798;10.954;2022-08-19T06:07:13;26.00;42.70
64549;DHT22;49838;51.798;10.954;2022-08-19T06:09:41;26.00;42.50
64549;DHT22;49838;51.798;10.954;2022-08-19T06:12:08;26.00;42.30
64549;DHT22;49838;51.798;10.954;2022-08-19T06:14:35;26.00;42.30
64549;DHT22;49838;51.798;10.954;2022-08-19T06:17:03;26.00;42.30
64549;DHT22;49838;51.798;10.954;2022-08-19T06:19:30;26.00;42.30
64549;DHT22;49838;51.798;10.954;2022-08-19T06:21:58;25.90;42.40
64549;DHT22;49838;51.798;10.954;2022-08-19T06:24:28;25.90;42.50
64549;DHT22;49838;51.798;10.954;2022-08-19T06:26:57;25.80;42.50
64549;DHT22;49838;51.798;10.954;2022-08-19T06:29:26;25.80;42.60
64549;DHT22;49838;51.798;10.954;2022-08-19T06:31:56;25.80;42.70
64549;DHT22;49838;51.798;10.954;2022-08-19T06:34:25;25.80;42.50
64549;DHT22;49838;51.798;10.954;2022-08-19T06:36:54;25.80;42.50
64549;DHT22;49838;51.798;10.954;2022-08-19T06:39:24;25.80;42.40
64549;DHT22;49838;51.798;10.954;2022-08-19T06:41:57;25.80;42.30
64549;DHT22;49838;51.798;10.954;2022-08-19T06:44:26;25.80;42.50
64549;DHT22;49838;51.798;10.954;2022-08-19T06:47:01;25.80;43.00
64549;DHT22;49838;51.798;10.954;2022-08-19T06:49:29;25.70;43.00
64549;DHT22;49838;51.798;10.954;2022-08-19T06:51:57;25.60;43.10
64549;DHT22;49838;51.798;10.954;2022-08-19T06:54:24;25.60;42.90
64549;DHT22;49838;51.798;10.954;2022-08-19T06:56:55;25.60;42.70
64549;DHT22;49838;51.798;10.954;2022-08-19T06:59:24;25.70;42.50
64549;DHT22;49838;51.798;10.954;2022-08-19T07:01:53;25.70;42.20
64549;DHT22;49838;51.798;10.954;2022-08-19T07:04:23;25.80;42.60
64549;DHT22;49838;51.798;10.954;2022-08-19T07:06:56;25.80;42.20
64549;DHT22;49838;51.798;10.954;2022-08-19T07:09:25;25.80;42.30
64549;DHT22;49838;51.798;10.954;2022-08-19T07:11:53;25.80;42.40
64549;DHT22;49838;51.798;10.954;2022-08-19T07:14:24;25.80;42.20
64549;DHT22;49838;51.798;10.954;2022-08-19T07:16:53;25.70;42.10
64549;DHT22;49838;51.798;10.954;2022-08-19T07:19:23;25.70;42.10
64549;DHT22;49838;51.798;10.954;2022-08-19T07:21:52;25.70;42.10
64549;DHT22;49838;51.798;10.954;2022-08-19T07:24:21;25.70;42.00
64549;DHT22;49838;51.798;10.954;2022-08-19T07:26:51;25.70;41.90
64549;DHT22;49838;51.798;10.954;2022-08-19T07:29:21;25.70;42.10
64549;DHT22;49838;51.798;10.954;2022-08-19T07:31:50;25.70;41.90
64549;DHT22;49838;51.798;10.954;2022-08-19T07:34:18;25.70;41.80
64549;DHT22;49838;51.798;10.954;2022-08-19T07:36:45;25.80;41.80
64549;DHT22;49838;51.798;10.954;2022-08-19T07:39:13;25.80;41.90
64549;DHT22;49838;51.798;10.954;2022-08-19T07:41:42;25.80;41.90
64549;DHT22;49838;51.798;10.954;2022-08-19T07:44:10;25.70;41.90
64549;DHT22;49838;51.798;10.954;2022-08-19T07:46:40;25.70;41.80
64549;DHT22;49838;51.798;10.954;2022-08-19T07:49:11;25.70;41.90
64549;DHT22;49838;51.798;10.954;2022-08-19T07:51:45;25.70;41.90
64549;DHT22;49838;51.798;10.954;2022-08-19T07:54:13;25.70;41.90
64549;DHT22;49838;51.798;10.954;2022-08-19T07:56:40;25.70;41.90
64549;DHT22;49838;51.798;10.954;2022-08-19T07:59:08;25.70;42.10
64549;DHT22;49838;51.798;10.954;2022-08-19T08:01:36;25.60;42.80
64549;DHT22;49838;51.798;10.954;2022-08-19T08:04:05;25.60;42.10
64549;DHT22;49838;51.798;10.954;2022-08-19T08:06:49;25.60;42.20
64549;DHT22;49838;51.798;10.954;2022-08-19T08:09:36;25.60;42.20
64549;DHT22;49838;51.798;10.954;2022-08-19T08:12:06;25.60;42.30
64549;DHT22;49838;51.798;10.954;2022-08-19T08:14:37;25.50;42.10
64549;DHT22;49838;51.798;10.954;2022-08-19T08:17:07;25.60;42.10
64549;DHT22;49838;51.798;10.954;2022-08-19T08:19:37;25.60;42.00
64549;DHT22;49838;51.798;10.954;2022-08-19T08:22:07;25.60;42.00
64549;DHT22;49838;51.798;10.954;2022-08-19T08:24:55;25.60;42.00
64549;DHT22;49838;51.798;10.954;2022-08-19T08:27:24;25.60;41.90
64549;DHT22;49838;51.798;10.954;2022-08-19T08:29:51;25.60;42.00
64549;DHT22;49838;51.798;10.954;2022-08-19T08:32:19;25.60;42.00
64549;DHT22;49838;51.798;10.954;2022-08-19T08:34:48;25.60;42.00
64549;DHT22;49838;51.798;10.954;2022-08-19T08:37:15;25.60;42.00
64549;DHT22;49838;51.798;10.954;2022-08-19T08:39:42;25.60;42.10
64549;DHT22;49838;51.798;10.954;2022-08-19T08:42:12;25.60;42.20
64549;DHT22;49838;51.798;10.954;2022-08-19T08:44:49;25.60;42.20
64549;DHT22;49838;51.798;10.954;2022-08-19T08:47:24;25.60;42.20
64549;DHT22;49838;51.798;10.954;2022-08-19T08:49:55;25.60;42.20
64549;DHT22;49838;51.798;10.954;2022-08-19T08:52:27;25.60;42.20
64549;DHT22;49838;51.798;10.954;2022-08-19T08:55:03;25.60;42.30
64549;DHT22;49838;51.798;10.954;2022-08-19T08:57:35;25.60;42.30
64549;DHT22;49838;51.798;10.954;2022-08-19T09:00:07;25.60;42.40
64549;DHT22;49838;51.798;10.954;2022-08-19T09:02:36;25.60;42.30
64549;DHT22;49838;51.798;10.954;2022-08-19T09:05:06;25.60;42.40
64549;DHT22;49838;51.798;10.954;2022-08-19T09:07:39;25.70;42.30
64549;DHT22;49838;51.798;10.954;2022-08-19T09:10:14;25.70;42.20
64549;DHT22;49838;51.798;10.954;2022-08-19T09:12:51;25.70;42.30
64549;DHT22;49838;51.798;10.954;2022-08-19T09:15:27;25.80;42.20
64549;DHT22;49838;51.798;10.954;2022-08-19T09:17:59;25.80;42.20
64549;DHT22;49838;51.798;10.954;2022-08-19T09:20:29;25.80;42.30
64549;DHT22;49838;51.798;10.954;2022-08-19T09:22:57;25.90;42.30
64549;DHT22;49838;51.798;10.954;2022-08-19T09:25:25;25.90;42.20
64549;DHT22;49838;51.798;10.954;2022-08-19T09:27:53;26.00;42.20
64549;DHT22;49838;51.798;10.954;2022-08-19T09:30:23;26.00;42.20
64549;DHT22;49838;51.798;10.954;2022-08-19T09:32:52;26.00;42.30
64549;DHT22;49838;51.798;10.954;2022-08-19T09:35:21;26.00;42.50
64549;DHT22;49838;51.798;10.954;2022-08-19T09:37:51;26.00;42.60
64549;DHT22;49838;51.798;10.954;2022-08-19T09:40:19;26.00;42.60
64549;DHT22;49838;51.798;10.954;2022-08-19T09:42:47;26.00;42.70
64549;DHT22;49838;51.798;10.954;2022-08-19T09:45:14;26.10;42.60
64549;DHT22;49838;51.798;10.954;2022-08-19T09:47:43;26.10;42.60
64549;DHT22;49838;51.798;10.954;2022-08-19T09:50:12;26.00;42.50
64549;DHT22;49838;51.798;10.954;2022-08-19T09:52:39;26.10;42.60
64549;DHT22;49838;51.798;10.954;2022-08-19T09:55:09;26.20;42.50
64549;DHT22;49838;51.798;10.954;2022-08-19T09:57:37;26.20;42.50
64549;DHT22;49838;51.798;10.954;2022-08-19T10:00:06;26.30;42.40
64549;DHT22;49838;51.798;10.954;2022-08-19T10:02:37;26.30;42.40
64549;DHT22;49838;51.798;10.954;2022-08-19T10:05:05;26.40;42.30
64549;DHT22;49838;51.798;10.954;2022-08-19T10:07:50;26.30;42.30
64549;DHT22;49838;51.798;10.954;2022-08-19T10:10:19;26.40;42.30
64549;DHT22;49838;51.798;10.954;2022-08-19T10:12:46;26.40;42.20
64549;DHT22;49838;51.798;10.954;2022-08-19T10:15:14;26.50;42.10
64549;DHT22;49838;51.798;10.954;2022-08-19T10:17:43;26.60;42.00
64549;DHT22;49838;51.798;10.954;2022-08-19T10:20:10;26.70;41.90
64549;DHT22;49838;51.798;10.954;2022-08-19T10:22:37;26.80;41.80
64549;DHT22;49838;51.798;10.954;2022-08-19T10:25:05;27.00;41.80
64549;DHT22;49838;51.798;10.954;2022-08-19T10:27:35;27.10;41.70
64549;DHT22;49838;51.798;10.954;2022-08-19T10:30:03;27.20;41.60
64549;DHT22;49838;51.798;10.954;2022-08-19T10:32:32;27.30;41.60
64549;DHT22;49838;51.798;10.954;2022-08-19T10:34:59;27.40;41.50
64549;DHT22;49838;51.798;10.954;2022-08-19T10:37:27;27.50;41.40
64549;DHT22;49838;51.798;10.954;2022-08-19T10:39:56;27.70;41.50
64549;DHT22;49838;51.798;10.954;2022-08-19T10:42:24;28.00;41.30
64549;DHT22;49838;51.798;10.954;2022-08-19T10:44:53;28.20;41.00
64549;DHT22;49838;51.798;10.954;2022-08-19T10:47:20;28.50;40.90
64549;DHT22;49838;51.798;10.954;2022-08-19T10:49:48;28.70;40.70
64549;DHT22;49838;51.798;10.954;2022-08-19T10:52:33;28.80;40.60
64549;DHT22;49838;51.798;10.954;2022-08-19T10:55:00;29.00;40.60
64549;DHT22;49838;51.798;10.954;2022-08-19T10:57:46;29.20;40.50
64549;DHT22;49838;51.798;10.954;2022-08-19T11:00:15;29.30;40.30
64549;DHT22;49838;51.798;10.954;2022-08-19T11:02:43;29.40;40.20
64549;DHT22;49838;51.798;10.954;2022-08-19T11:05:10;29.50;40.20
64549;DHT22;49838;51.798;10.954;2022-08-19T11:07:38;29.60;40.30
64549;DHT22;49838;51.798;10.954;2022-08-19T11:10:06;29.70;40.20
64549;DHT22;49838;51.798;10.954;2022-08-19T11:12:36;29.90;40.10
64549;DHT22;49838;51.798;10.954;2022-08-19T11:15:05;29.90;39.90
64549;DHT22;49838;51.798;10.954;2022-08-19T11:17:34;30.00;39.80
64549;DHT22;49838;51.798;10.954;2022-08-19T11:20:05;30.10;39.90
64549;DHT22;49838;51.798;10.954;2022-08-19T11:22:33;30.10;39.80
64549;DHT22;49838;51.798;10.954;2022-08-19T11:25:00;30.10;39.70
64549;DHT22;49838;51.798;10.954;2022-08-19T11:27:28;30.00;39.60
64549;DHT22;49838;51.798;10.954;2022-08-19T11:29:55;30.20;39.70
64549;DHT22;49838;51.798;10.954;2022-08-19T11:32:23;30.20;39.40
64549;DHT22;49838;51.798;10.954;2022-08-19T11:34:51;30.20;39.50
64549;DHT22;49838;51.798;10.954;2022-08-19T11:37:19;30.20;39.30
64549;DHT22;49838;51.798;10.954;2022-08-19T11:39:46;30.30;39.30
64549;DHT22;49838;51.798;10.954;2022-08-19T11:42:13;30.30;39.10
64549;DHT22;49838;51.798;10.954;2022-08-19T11:44:58;30.40;39.00
64549;DHT22;49838;51.798;10.954;2022-08-19T11:47:25;30.40;38.90
64549;DHT22;49838;51.798;10.954;2022-08-19T11:49:53;30.40;38.90
64549;DHT22;49838;51.798;10.954;2022-08-19T11:52:21;30.50;39.10
64549;DHT22;49838;51.798;10.954;2022-08-19T11:54:48;30.60;38.90
64549;DHT22;49838;51.798;10.954;2022-08-19T11:57:15;30.70;38.90
64549;DHT22;49838;51.798;10.954;2022-08-19T11:59:47;30.80;38.70
64549;DHT22;49838;51.798;10.954;2022-08-19T12:02:15;30.90;38.60
64549;DHT22;49838;51.798;10.954;2022-08-19T12:04:42;31.00;38.60
64549;DHT22;49838;51.798;10.954;2022-08-19T12:07:11;31.10;38.60
64549;DHT22;49838;51.798;10.954;2022-08-19T12:09:38;31.30;38.40
64549;DHT22;49838;51.798;10.954;2022-08-19T12:12:06;31.30;38.40
64549;DHT22;49838;51.798;10.954;2022-08-19T12:14:34;31.50;38.40
64549;DHT22;49838;51.798;10.954;2022-08-19T12:17:01;31.40;38.10
64549;DHT22;49838;51.798;10.954;2022-08-19T12:19:33;31.50;38.40
64549;DHT22;49838;51.798;10.954;2022-08-19T12:22:00;31.60;38.20
64549;DHT22;49838;51.798;10.954;2022-08-19T12:24:31;31.60;38.10
64549;DHT22;49838;51.798;10.954;2022-08-19T12:26:59;31.70;38.30
64549;DHT22;49838;51.798;10.954;2022-08-19T12:29:28;31.70;37.90
64549;DHT22;49838;51.798;10.954;2022-08-19T12:31:56;31.70;38.10
64549;DHT22;49838;51.798;10.954;2022-08-19T12:34:27;31.80;38.10
64549;DHT22;49838;51.798;10.954;2022-08-19T12:36:56;31.90;38.00
64549;DHT22;49838;51.798;10.954;2022-08-19T12:39:24;31.90;37.90
64549;DHT22;49838;51.798;10.954;2022-08-19T12:41:53;31.90;37.90
64549;DHT22;49838;51.798;10.954;2022-08-19T12:44:20;32.10;37.90
64549;DHT22;49838;51.798;10.954;2022-08-19T12:46:48;32.20;37.80
64549;DHT22;49838;51.798;10.954;2022-08-19T12:49:15;32.20;37.40
64549;DHT22;49838;51.798;10.954;2022-08-19T12:51:43;32.30;37.70
64549;DHT22;49838;51.798;10.954;2022-08-19T12:54:10;32.40;37.70
64549;DHT22;49838;51.798;10.954;2022-08-19T12:56:37;32.40;37.40
64549;DHT22;49838;51.798;10.954;2022-08-19T12:59:06;32.50;37.30
64549;DHT22;49838;51.798;10.954;2022-08-19T13:01:34;32.60;37.40
64549;DHT22;49838;51.798;10.954;2022-08-19T13:04:01;32.60;37.40
64549;DHT22;49838;51.798;10.954;2022-08-19T13:06:29;32.70;37.30
64549;DHT22;49838;51.798;10.954;2022-08-19T13:08:56;32.80;37.10
64549;DHT22;49838;51.798;10.954;2022-08-19T13:11:24;32.70;37.50
64549;DHT22;49838;51.798;10.954;2022-08-19T13:13:51;32.80;37.20
64549;DHT22;49838;51.798;10.954;2022-08-19T13:16:22;32.80;37.00
64549;DHT22;49838;51.798;10.954;2022-08-19T13:18:49;32.80;37.10
64549;DHT22;49838;51.798;10.954;2022-08-19T13:21:18;32.90;37.10
64549;DHT22;49838;51.798;10.954;2022-08-19T13:23:46;33.00;36.70
64549;DHT22;49838;51.798;10.954;2022-08-19T13:26:14;33.00;36.70
64549;DHT22;49838;51.798;10.954;2022-08-19T13:28:42;33.00;36.30
64549;DHT22;49838;51.798;10.954;2022-08-19T13:31:29;33.00;36.60
64549;DHT22;49838;51.798;10.954;2022-08-19T13:34:16;33.00;36.60
64549;DHT22;49838;51.798;10.954;2022-08-19T13:36:46;33.00;35.90
64549;DHT22;49838;51.798;10.954;2022-08-19T13:39:14;33.10;36.30
64549;DHT22;49838;51.798;10.954;2022-08-19T13:41:43;33.20;36.20
64549;DHT22;49838;51.798;10.954;2022-08-19T13:44:13;33.20;36.00
64549;DHT22;49838;51.798;10.954;2022-08-19T13:46:42;33.40;35.90
64549;DHT22;49838;51.798;10.954;2022-08-19T13:49:11;33.50;35.70
64549;DHT22;49838;51.798;10.954;2022-08-19T13:51:38;33.60;35.50
64549;DHT22;49838;51.798;10.954;2022-08-19T13:54:06;33.70;35.70
64549;DHT22;49838;51.798;10.954;2022-08-19T13:56:34;33.80;35.70
64549;DHT22;49838;51.798;10.954;2022-08-19T13:59:06;33.80;35.50
64549;DHT22;49838;51.798;10.954;2022-08-19T14:01:33;33.90;35.50
64549;DHT22;49838;51.798;10.954;2022-08-19T14:04:02;33.90;35.30
64549;DHT22;49838;51.798;10.954;2022-08-19T14:06:29;33.90;35.20
64549;DHT22;49838;51.798;10.954;2022-08-19T14:08:57;33.90;34.70
64549;DHT22;49838;51.798;10.954;2022-08-19T14:11:24;33.90;34.70
64549;DHT22;49838;51.798;10.954;2022-08-19T14:13:51;34.00;34.90
64549;DHT22;49838;51.798;10.954;2022-08-19T14:16:19;34.10;34.90
64549;DHT22;49838;51.798;10.954;2022-08-19T14:18:47;34.20;34.70
64549;DHT22;49838;51.798;10.954;2022-08-19T14:21:16;34.20;34.60
64549;DHT22;49838;51.798;10.954;2022-08-19T14:23:45;34.30;34.00
64549;DHT22;49838;51.798;10.954;2022-08-19T14:26:13;34.20;34.20
64549;DHT22;49838;51.798;10.954;2022-08-19T14:28:43;34.20;34.20
64549;DHT22;49838;51.798;10.954;2022-08-19T14:31:12;34.20;34.40
64549;DHT22;49838;51.798;10.954;2022-08-19T14:33:42;34.20;34.40
64549;DHT22;49838;51.798;10.954;2022-08-19T14:36:10;34.20;34.50
64549;DHT22;49838;51.798;10.954;2022-08-19T14:38:39;34.20;34.10
64549;DHT22;49838;51.798;10.954;2022-08-19T14:41:08;34.00;34.20
64549;DHT22;49838;51.798;10.954;2022-08-19T14:43:37;33.90;34.10
64549;DHT22;49838;51.798;10.954;2022-08-19T14:46:05;33.80;33.90
64549;DHT22;49838;51.798;10.954;2022-08-19T14:48:33;33.70;33.90
64549;DHT22;49838;51.798;10.954;2022-08-19T14:51:02;33.50;33.80
64549;DHT22;49838;51.798;10.954;2022-08-19T14:53:29;33.30;33.90
64549;DHT22;49838;51.798;10.954;2022-08-19T14:55:58;33.20;34.00
64549;DHT22;49838;51.798;10.954;2022-08-19T14:58:25;33.10;34.10
64549;DHT22;49838;51.798;10.954;2022-08-19T15:00:52;33.10;34.20
64549;DHT22;49838;51.798;10.954;2022-08-19T15:03:23;33.00;34.30
64549;DHT22;49838;51.798;10.954;2022-08-19T15:05:51;32.90;34.20
64549;DHT22;49838;51.798;10.954;2022-08-19T15:08:19;32.90;33.70
64549;DHT22;49838;51.798;10.954;2022-08-19T15:10:50;32.80;33.50
64549;DHT22;49838;51.798;10.954;2022-08-19T15:13:19;32.70;33.40
64549;DHT22;49838;51.798;10.954;2022-08-19T15:15:47;32.60;33.00
64549;DHT22;49838;51.798;10.954;2022-08-19T15:18:14;32.60;33.80
64549;DHT22;49838;51.798;10.954;2022-08-19T15:20:41;32.50;34.00
64549;DHT22;49838;51.798;10.954;2022-08-19T15:23:09;32.60;34.10
64549;DHT22;49838;51.798;10.954;2022-08-19T15:25:37;32.80;34.20
64549;DHT22;49838;51.798;10.954;2022-08-19T15:28:04;32.90;34.10